createdAt,value
2023-04-18T00:03:41.965Z,11.58
2023-04-18T00:09:03.823Z,11.54
2023-04-18T00:14:26.746Z,11.46
2023-04-18T00:19:48.759Z,11.45
2023-04-18T00:25:10.762Z,11.42
2023-04-18T00:30:33.811Z,11.31
2023-04-18T00:35:55.747Z,11.22
2023-04-18T00:41:17.759Z,11.12
2023-04-18T00:46:39.823Z,11.06
2023-04-18T00:52:02.744Z,11.04
2023-04-18T00:57:25.745Z,11.09
2023-04-18T01:02:47.824Z,11.12
2023-04-18T01:13:31.730Z,11.24
2023-04-18T01:18:53.746Z,11.28
2023-04-18T01:24:23.747Z,11.28
2023-04-18T01:29:45.826Z,11.25
2023-04-18T01:35:07.730Z,11.30
2023-04-18T01:40:37.736Z,11.36
2023-04-18T01:45:59.773Z,11.36
2023-04-18T01:51:22.738Z,11.40
2023-04-18T01:56:44.744Z,11.33
2023-04-18T02:02:06.811Z,11.35
2023-04-18T02:07:28.703Z,11.37
2023-04-18T02:12:50.718Z,11.40
2023-04-18T02:18:13.751Z,11.42
2023-04-18T02:23:35.757Z,11.40
2023-04-18T02:28:57.734Z,11.40
2023-04-18T02:34:20.730Z,11.41
2023-04-18T02:39:49.706Z,11.40
2023-04-18T02:45:12.710Z,11.35
2023-04-18T02:50:35.723Z,11.33
2023-04-18T02:55:57.729Z,11.32
2023-04-18T03:01:39.759Z,11.27
2023-04-18T03:07:05.748Z,11.18
2023-04-18T03:12:27.698Z,11.13
2023-04-18T03:17:50.764Z,11.11
2023-04-18T03:23:14.703Z,11.10
2023-04-18T03:28:36.695Z,11.09
2023-04-18T03:33:59.719Z,11.02
2023-04-18T03:39:21.758Z,11.02
2023-04-18T03:44:44.688Z,10.97
2023-04-18T03:50:06.698Z,10.90
2023-04-18T03:55:30.702Z,10.89
2023-04-18T04:00:52.718Z,10.89
2023-04-18T04:06:14.713Z,10.91
2023-04-18T04:11:36.684Z,10.91
2023-04-18T04:17:00.681Z,10.88
2023-04-18T04:22:23.697Z,10.89
2023-04-18T04:27:45.684Z,10.87
2023-04-18T04:33:09.758Z,10.87
2023-04-18T04:38:31.706Z,10.84
2023-04-18T04:44:08.685Z,10.83
2023-04-18T04:49:30.678Z,10.81
2023-04-18T04:54:52.692Z,10.80
2023-04-18T05:00:15.685Z,10.77
2023-04-18T05:05:38.700Z,10.70
2023-04-18T05:11:01.683Z,10.70
2023-04-18T05:16:23.797Z,10.73
2023-04-18T05:21:45.681Z,10.77
2023-04-18T05:27:07.703Z,10.75
2023-04-18T05:32:29.718Z,10.65
2023-04-18T05:37:51.686Z,10.65
2023-04-18T05:43:13.718Z,10.65
2023-04-18T05:48:35.665Z,10.54
2023-04-18T05:53:57.669Z,10.40
2023-04-18T05:59:19.692Z,10.28
2023-04-18T06:04:41.932Z,10.25
2023-04-18T06:10:03.698Z,10.09
2023-04-18T06:15:25.656Z,10.15
2023-04-18T06:20:48.720Z,10.16
2023-04-18T06:26:10.977Z,10.17
2023-04-18T06:31:32.734Z,10.23
2023-04-18T06:36:55.668Z,10.42
2023-04-18T06:42:17.868Z,10.59
2023-04-18T06:47:42.692Z,10.74
2023-04-18T06:53:04.679Z,10.83
2023-04-18T06:58:26.643Z,10.97
2023-04-18T07:03:48.822Z,11.09
2023-04-18T07:09:10.667Z,11.19
2023-04-18T07:14:36.670Z,11.26
2023-04-18T07:19:58.636Z,11.32
2023-04-18T07:25:20.649Z,11.38
2023-04-18T07:30:42.690Z,11.45
2023-04-18T07:36:05.650Z,11.52
2023-04-18T07:41:27.638Z,11.56
2023-04-18T07:46:49.674Z,11.63
2023-04-18T07:52:11.631Z,11.69
2023-04-18T07:57:33.644Z,11.74
2023-04-18T08:02:55.748Z,11.82
2023-04-18T08:08:17.654Z,11.91
2023-04-18T08:13:39.636Z,12.01
2023-04-18T08:19:01.661Z,12.10
2023-04-18T08:24:23.624Z,12.17
2023-04-18T08:29:45.640Z,12.24
2023-04-18T08:35:07.664Z,12.29
2023-04-18T08:40:36.624Z,12.38
2023-04-18T08:46:05.702Z,12.45
2023-04-18T08:51:27.604Z,12.48
2023-04-18T08:56:49.613Z,12.56
2023-04-18T09:02:11.666Z,12.62
2023-04-18T09:07:34.609Z,12.70
2023-04-18T09:12:58.655Z,12.75
2023-04-18T09:18:20.622Z,12.78
2023-04-18T09:23:42.599Z,12.77
2023-04-18T09:29:04.619Z,12.74
2023-04-18T09:34:34.614Z,12.77
2023-04-18T09:39:57.610Z,12.80
2023-04-18T09:45:21.622Z,12.83
2023-04-18T09:50:45.644Z,12.86
2023-04-18T09:56:07.584Z,12.88
2023-04-18T10:01:34.736Z,12.90
2023-04-18T10:06:59.644Z,12.94
2023-04-18T10:12:14.853Z,13.00
2023-04-18T10:18:00.622Z,13.03
2023-04-18T10:23:46.631Z,13.04
2023-04-18T10:29:08.624Z,13.07
2023-04-18T10:34:31.657Z,13.13
2023-04-18T10:39:55.606Z,13.17
2023-04-18T10:45:35.598Z,13.20
2023-04-18T10:51:24.600Z,13.24
2023-04-18T10:56:46.632Z,13.29
2023-04-18T11:02:33.693Z,13.31
2023-04-18T11:07:57.596Z,13.38
2023-04-18T11:13:19.581Z,13.47
2023-04-18T11:18:53.595Z,13.60
2023-04-18T11:24:15.769Z,13.77
2023-04-18T11:29:37.578Z,13.92
2023-04-18T11:35:02.599Z,13.94
2023-04-18T11:40:25.569Z,14.05
2023-04-18T11:46:00.608Z,14.22
2023-04-18T11:51:46.580Z,14.38
2023-04-18T11:57:08.594Z,14.54
2023-04-18T12:02:30.656Z,14.64
2023-04-18T12:07:52.596Z,14.80
2023-04-18T12:13:14.562Z,14.95
2023-04-18T12:18:36.576Z,15.12
2023-04-18T12:23:58.599Z,15.29
2023-04-18T12:29:20.607Z,15.41
2023-04-18T12:34:42.569Z,15.46
2023-04-18T12:40:04.576Z,15.54
2023-04-18T12:45:27.553Z,15.63
2023-04-18T12:50:49.569Z,15.70
2023-04-18T12:56:11.570Z,15.79
2023-04-18T13:01:34.596Z,15.83
2023-04-18T13:06:56.570Z,15.87
2023-04-18T13:12:18.573Z,15.91
2023-04-18T13:17:40.587Z,15.95
2023-04-18T13:23:02.595Z,15.88
2023-04-18T13:28:24.670Z,15.91
2023-04-18T13:33:46.572Z,15.96
2023-04-18T13:39:08.870Z,16.03
2023-04-18T13:44:31.582Z,16.09
2023-04-18T13:49:53.566Z,16.09
2023-04-18T13:55:17.580Z,16.16
2023-04-18T14:00:39.568Z,16.17
2023-04-18T14:06:01.623Z,16.18
2023-04-18T14:11:23.588Z,16.19
2023-04-18T14:16:45.576Z,16.19
2023-04-18T14:22:07.535Z,16.17
2023-04-18T14:27:29.563Z,16.12
2023-04-18T14:32:51.656Z,16.10
2023-04-18T14:38:13.573Z,16.10
2023-04-18T14:43:35.629Z,16.03
2023-04-18T14:48:57.564Z,15.96
2023-04-18T14:54:19.576Z,15.88
2023-04-18T14:59:41.584Z,15.80
2023-04-18T15:05:03.613Z,15.76
2023-04-18T15:10:28.545Z,15.68
2023-04-18T15:15:50.521Z,15.59
2023-04-18T15:21:12.524Z,15.47
2023-04-18T15:26:34.556Z,15.37
2023-04-18T15:31:56.600Z,15.27
2023-04-18T15:37:18.559Z,15.22
2023-04-18T15:42:40.545Z,15.15
2023-04-18T15:48:02.609Z,15.05
2023-04-18T15:53:24.582Z,14.95
2023-04-18T15:58:46.561Z,14.90
2023-04-18T16:04:08.701Z,14.79
2023-04-18T16:09:30.567Z,14.68
2023-04-18T16:14:52.534Z,14.62
2023-04-18T16:20:15.514Z,14.57
2023-04-18T16:25:37.513Z,14.54
2023-04-18T16:30:59.536Z,14.50
2023-04-18T16:36:21.526Z,14.45
2023-04-18T16:41:43.530Z,14.43
2023-04-18T16:47:05.614Z,14.42
2023-04-18T16:52:27.518Z,14.43
2023-04-18T16:57:49.518Z,14.46
2023-04-18T17:03:13.593Z,14.48
2023-04-18T17:08:35.520Z,14.50
2023-04-18T17:13:57.526Z,14.46
2023-04-18T17:19:19.543Z,14.47
2023-04-18T17:24:41.514Z,14.46
2023-04-18T17:30:03.504Z,14.46
2023-04-18T17:35:26.553Z,14.42
2023-04-18T17:40:55.503Z,14.37
2023-04-18T17:46:17.551Z,14.35
2023-04-18T17:51:39.496Z,14.30
2023-04-18T17:57:01.508Z,14.29
2023-04-18T18:02:23.699Z,14.25
2023-04-18T18:07:45.504Z,14.19
2023-04-18T18:13:07.523Z,14.15
2023-04-18T18:18:29.541Z,14.14
2023-04-18T18:23:51.490Z,14.11
2023-04-18T18:29:16.722Z,14.08
2023-04-18T18:34:38.522Z,14.06
2023-04-18T18:40:03.517Z,14.00
2023-04-18T18:45:26.537Z,13.95
2023-04-18T18:50:48.539Z,13.91
2023-04-18T18:56:10.496Z,13.88
2023-04-18T19:01:32.579Z,13.86
2023-04-18T19:06:54.506Z,13.83
2023-04-18T19:12:16.485Z,13.81
2023-04-18T19:17:38.549Z,13.79
2023-04-18T19:23:00.487Z,13.77
2023-04-18T19:28:24.485Z,13.75
2023-04-18T19:33:46.484Z,13.72
2023-04-18T19:39:08.506Z,13.71
2023-04-18T19:44:30.496Z,13.71
2023-04-18T19:49:52.494Z,13.70
2023-04-18T19:55:14.472Z,13.63
2023-04-18T20:00:36.494Z,13.63
2023-04-18T20:05:58.492Z,13.60
2023-04-18T20:11:22.472Z,13.57
2023-04-18T20:16:45.555Z,13.51
2023-04-18T20:22:07.480Z,13.44
2023-04-18T20:27:29.465Z,13.40
2023-04-18T20:32:51.527Z,13.40
2023-04-18T20:38:15.473Z,13.37
2023-04-18T20:43:37.543Z,13.35
2023-04-18T20:48:59.483Z,13.33
2023-04-18T20:54:21.469Z,13.32
2023-04-18T20:59:43.470Z,13.29
2023-04-18T21:05:05.466Z,13.27
2023-04-18T21:10:27.488Z,13.25
2023-04-18T21:15:49.512Z,13.23
2023-04-18T21:21:11.469Z,13.20
2023-04-18T21:26:33.465Z,13.21
2023-04-18T21:31:56.481Z,13.18
2023-04-18T21:37:18.486Z,13.17
2023-04-18T21:42:48.718Z,13.17
2023-04-18T21:48:11.480Z,13.13
2023-04-18T21:53:33.473Z,13.13
2023-04-18T21:58:55.458Z,13.10
2023-04-18T22:04:18.750Z,13.09
2023-04-18T22:09:42.444Z,13.08
2023-04-18T22:15:04.456Z,13.04
2023-04-18T22:20:26.462Z,12.99
2023-04-18T22:25:48.449Z,12.97
2023-04-18T22:31:10.477Z,12.93
2023-04-18T22:36:33.451Z,12.93
2023-04-18T22:42:02.466Z,12.92
2023-04-18T22:47:24.514Z,12.92
2023-04-18T22:52:46.451Z,12.89
2023-04-18T22:58:09.463Z,12.87
2023-04-18T23:03:31.587Z,12.82
2023-04-18T23:08:53.455Z,12.80
2023-04-18T23:14:16.594Z,12.83
2023-04-18T23:19:38.485Z,12.79
2023-04-18T23:25:00.484Z,12.76
2023-04-18T23:30:22.435Z,12.76
2023-04-18T23:35:44.438Z,12.74
2023-04-18T23:41:13.469Z,12.73
2023-04-18T23:46:36.724Z,12.71
2023-04-18T23:51:58.439Z,12.69
2023-04-18T23:57:20.452Z,12.68
